Time;durP1;ratioP1;P1;durP2;ratioP2;P2;SDS_P1;SDS_P2;PMS_P1;PMS_P2;Temp;Humidity;BMP_temperature;BMP_pressure;BME280_temperature;BME280_humidity;BME280_pressure;Samples;Min_cycle;Max_cycle;Signal;HPM_P1;HPM_P2
2023/07/27 00:02:23;;;;;;;2.97;2.08;;;19.00;83.80;;;;;;5079324;28;20016;-78
2023/07/27 00:04:48;;;;;;;4.50;2.05;;;19.00;83.80;;;;;;5080596;28;20485;-79
2023/07/27 00:07:14;;;;;;;7.28;2.22;;;19.00;83.80;;;;;;5076976;28;20124;-78
2023/07/27 00:09:40;;;;;;;12.68;2.28;;;19.00;83.80;;;;;;5077917;28;20497;-79
2023/07/27 00:12:06;;;;;;;3.42;2.42;;;19.00;83.90;;;;;;5084238;28;20051;-79
2023/07/27 00:14:31;;;;;;;4.00;2.42;;;19.00;83.80;;;;;;5080964;28;20100;-79
2023/07/27 00:16:57;;;;;;;5.28;2.50;;;19.00;83.80;;;;;;5079875;28;20552;-79
2023/07/27 00:19:22;;;;;;;4.05;2.08;;;19.00;83.80;;;;;;5081450;28;20032;-79
2023/07/27 00:21:48;;;;;;;6.07;2.10;;;19.00;83.80;;;;;;5074712;28;20043;-79
2023/07/27 00:24:14;;;;;;;3.38;2.42;;;19.00;83.80;;;;;;5080153;28;20024;-77
2023/07/27 00:26:41;;;;;;;6.90;2.50;;;19.00;83.90;;;;;;5084380;28;20024;-79
2023/07/27 00:29:07;;;;;;;2.97;2.22;;;19.00;83.90;;;;;;5078618;28;20034;-79
2023/07/27 00:31:32;;;;;;;5.00;2.40;;;19.00;83.90;;;;;;5076481;28;20041;-78
2023/07/27 00:33:58;;;;;;;5.25;2.15;;;19.00;83.90;;;;;;5079800;28;20020;-78
2023/07/27 00:36:24;;;;;;;5.15;2.17;;;19.00;84.00;;;;;;5076598;28;20028;-79
2023/07/27 00:38:49;;;;;;;9.52;2.28;;;19.00;84.00;;;;;;5076998;28;20427;-79
2023/07/27 00:41:15;;;;;;;3.58;2.15;;;19.00;84.00;;;;;;5088730;28;20020;-79
2023/07/27 00:43:40;;;;;;;4.05;2.20;;;19.00;84.00;;;;;;5082823;28;20017;-79
2023/07/27 00:46:06;;;;;;;3.60;2.50;;;19.00;84.10;;;;;;5081084;28;20023;-79
2023/07/27 00:48:32;;;;;;;2.25;1.88;;;19.00;84.10;;;;;;5077375;28;20545;-79
2023/07/27 00:50:58;;;;;;;2.95;2.10;;;19.00;84.10;;;;;;5081243;28;20099;-79
2023/07/27 00:53:24;;;;;;;2.75;2.00;;;19.00;84.10;;;;;;5077233;28;20024;-79
2023/07/27 00:55:50;;;;;;;2.05;1.63;;;19.00;84.10;;;;;;5088004;28;20027;-79
2023/07/27 00:58:16;;;;;;;4.30;2.03;;;19.00;84.10;;;;;;5088492;28;20023;-78
2023/07/27 01:00:42;;;;;;;3.38;2.03;;;19.00;84.10;;;;;;5081087;28;20012;-79
2023/07/27 01:03:08;;;;;;;5.70;1.80;;;19.00;84.00;;;;;;5081073;28;20016;-79
2023/07/27 01:05:35;;;;;;;4.85;2.25;;;19.00;84.10;;;;;;5083143;28;20542;-78
2023/07/27 01:08:00;;;;;;;4.15;2.13;;;19.00;84.10;;;;;;5084248;28;20043;-78
2023/07/27 01:10:47;;;;;;;4.45;1.75;;;19.00;84.10;;;;;;5090249;28;20064;-79
2023/07/27 01:13:47;;;;;;;2.38;1.45;;;18.90;84.10;;;;;;5088364;28;20549;-79
2023/07/27 01:16:19;;;;;;;1.83;1.63;;;19.00;84.10;;;;;;5086762;28;20020;-79
2023/07/27 01:19:09;;;;;;;4.97;1.80;;;19.00;84.20;;;;;;5087898;28;20370;-79
2023/07/27 01:21:44;;;;;;;6.05;1.73;;;19.00;84.10;;;;;;5086871;28;20047;-79
2023/07/27 01:24:33;;;;;;;2.83;1.60;;;19.00;84.10;;;;;;5088868;28;20036;-79
2023/07/27 01:27:18;;;;;;;3.03;1.77;;;18.90;84.00;;;;;;5088706;28;20480;-78
2023/07/27 01:30:17;;;;;;;2.47;2.10;;;18.90;84.10;;;;;;5089867;28;20020;-79
2023/07/27 01:32:45;;;;;;;9.07;2.33;;;19.00;84.10;;;;;;5086357;28;20393;-78
2023/07/27 01:35:16;;;;;;;3.67;2.30;;;19.00;84.20;;;;;;5087045;28;20027;-78
2023/07/27 01:37:43;;;;;;;2.67;1.85;;;18.90;84.10;;;;;;5088322;28;20081;-78
2023/07/27 01:40:11;;;;;;;6.45;2.30;;;18.90;84.10;;;;;;5089259;28;20465;-79
2023/07/27 01:42:37;;;;;;;6.05;2.25;;;19.00;84.20;;;;;;5088459;28;20020;-78
2023/07/27 01:45:04;;;;;;;4.32;2.15;;;19.00;84.20;;;;;;5086259;28;20039;-78
2023/07/27 01:47:30;;;;;;;3.25;2.20;;;19.00;84.20;;;;;;5088042;28;20031;-79
2023/07/27 01:49:57;;;;;;;5.93;2.80;;;18.90;84.10;;;;;;5090003;28;20020;-79
2023/07/27 01:52:25;;;;;;;3.88;2.17;;;18.90;84.10;;;;;;5086150;28;20077;-79
2023/07/27 01:54:51;;;;;;;3.25;2.30;;;18.90;84.10;;;;;;5088458;28;20718;-78
2023/07/27 01:57:17;;;;;;;5.90;2.42;;;18.90;84.20;;;;;;5087207;28;20469;-78
2023/07/27 01:59:44;;;;;;;8.63;2.35;;;18.90;84.30;;;;;;5084310;28;20572;-78
2023/07/27 02:02:12;;;;;;;4.35;2.33;;;18.90;84.20;;;;;;5087069;28;20403;-79
2023/07/27 02:04:38;;;;;;;5.00;2.30;;;18.90;84.10;;;;;;5080112;28;20052;-79
2023/07/27 02:07:04;;;;;;;5.03;2.47;;;18.90;84.10;;;;;;5085855;28;20056;-78
2023/07/27 02:09:29;;;;;;;4.13;2.88;;;18.90;84.10;;;;;;5089929;28;20062;-78
2023/07/27 02:12:00;;;;;;;3.45;2.42;;;18.90;84.10;;;;;;5085353;28;20036;-78
2023/07/27 02:14:38;;;;;;;4.82;2.42;;;18.90;84.20;;;;;;5083639;28;20012;-78
2023/07/27 02:17:11;;;;;;;3.17;2.30;;;18.90;84.20;;;;;;5087365;28;20026;-78
2023/07/27 02:19:39;;;;;;;4.63;2.30;;;18.90;84.10;;;;;;5087756;28;20038;-78
2023/07/27 02:22:08;;;;;;;3.55;2.50;;;18.90;84.10;;;;;;5090333;28;20066;-79
2023/07/27 02:24:34;;;;;;;7.05;2.38;;;18.90;84.30;;;;;;5086662;28;20032;-79
2023/07/27 02:27:00;;;;;;;4.28;2.60;;;18.90;84.20;;;;;;5081811;28;20027;-79
2023/07/27 02:29:25;;;;;;;3.85;2.50;;;18.90;84.30;;;;;;5080117;28;20028;-79
2023/07/27 02:31:51;;;;;;;4.15;2.65;;;18.90;84.30;;;;;;5085086;28;20043;-78
2023/07/27 02:34:18;;;;;;;3.80;2.10;;;18.90;84.40;;;;;;5088966;28;20035;-79
2023/07/27 02:36:43;;;;;;;4.03;2.42;;;18.90;84.30;;;;;;5088515;28;20028;-79
2023/07/27 02:39:09;;;;;;;3.97;2.42;;;18.90;84.40;;;;;;5088824;28;20032;-79
2023/07/27 02:41:34;;;;;;;3.47;2.25;;;18.90;84.40;;;;;;5092711;28;20119;-78
2023/07/27 02:44:00;;;;;;;3.53;2.10;;;18.90;84.40;;;;;;5085341;28;20032;-78
2023/07/27 02:46:26;;;;;;;5.90;2.53;;;18.90;84.30;;;;;;5081542;28;20055;-78
2023/07/27 02:48:53;;;;;;;4.50;2.00;;;18.90;84.30;;;;;;5083562;28;20306;-78
2023/07/27 02:51:19;;;;;;;8.93;2.40;;;18.90;84.20;;;;;;5087167;28;20032;-79
2023/07/27 02:53:44;;;;;;;4.40;2.58;;;18.90;85.00;;;;;;5084446;28;20574;-79
2023/07/27 02:56:10;;;;;;;3.42;2.00;;;18.90;84.20;;;;;;5086054;28;20469;-79
2023/07/27 02:58:35;;;;;;;4.00;2.03;;;18.90;84.30;;;;;;5085319;28;20031;-78
2023/07/27 03:01:02;;;;;;;7.78;2.55;;;18.90;84.20;;;;;;5077767;28;20606;-79
2023/07/27 03:03:28;;;;;;;6.95;2.10;;;18.90;84.30;;;;;;5074606;28;20028;-78
2023/07/27 03:06:01;;;;;;;4.03;2.17;;;18.90;84.20;;;;;;5080927;28;20042;-79
2023/07/27 03:08:27;;;;;;;4.50;2.20;;;18.90;84.20;;;;;;5089361;28;20050;-79
2023/07/27 03:10:54;;;;;;;3.22;2.35;;;18.90;84.20;;;;;;5086250;28;20039;-78
2023/07/27 03:13:20;;;;;;;5.90;2.50;;;18.90;84.30;;;;;;5081740;28;20035;-79
2023/07/27 03:15:45;;;;;;;5.78;2.58;;;18.90;84.20;;;;;;5078206;28;20012;-78
2023/07/27 03:18:11;;;;;;;3.53;2.28;;;18.90;84.20;;;;;;5079019;28;20043;-79
2023/07/27 03:20:40;;;;;;;3.03;2.35;;;18.80;84.00;;;;;;5076441;28;20484;-78
2023/07/27 03:23:07;;;;;;;3.67;2.50;;;18.90;84.10;;;;;;5086329;28;20528;-78
2023/07/27 03:25:34;;;;;;;6.55;2.13;;;18.90;84.10;;;;;;5087842;28;20024;-79
2023/07/27 03:28:02;;;;;;;3.47;2.10;;;18.80;84.00;;;;;;5083201;28;20024;-79
2023/07/27 03:30:27;;;;;;;6.18;2.03;;;18.80;84.00;;;;;;5083038;28;20082;-79
2023/07/27 03:32:53;;;;;;;5.32;2.08;;;18.90;84.20;;;;;;5077453;28;20057;-78
2023/07/27 03:35:19;;;;;;;4.32;2.28;;;18.90;84.10;;;;;;5081068;28;20062;-78
2023/07/27 03:37:44;;;;;;;3.83;2.33;;;18.90;84.10;;;;;;5086904;28;20048;-79
2023/07/27 03:40:10;;;;;;;3.20;2.22;;;18.90;84.10;;;;;;5086446;28;20080;-79
2023/07/27 03:42:35;;;;;;;5.93;2.53;;;18.80;84.10;;;;;;5083715;28;20106;-78
2023/07/27 03:45:01;;;;;;;6.82;2.42;;;18.80;84.90;;;;;;5083553;28;20040;-79
2023/07/27 03:47:27;;;;;;;5.47;2.92;;;18.80;84.10;;;;;;5082352;28;20032;-79
2023/07/27 03:49:52;;;;;;;3.67;1.95;;;18.90;84.20;;;;;;5077039;28;20020;-79
2023/07/27 03:52:18;;;;;;;4.05;2.05;;;18.80;84.20;;;;;;5085422;28;20456;-78
2023/07/27 03:54:43;;;;;;;3.70;2.13;;;18.80;84.20;;;;;;5086423;28;20059;-78
2023/07/27 03:57:09;;;;;;;4.03;2.30;;;18.80;84.30;;;;;;5086077;28;20020;-79
2023/07/27 03:59:35;;;;;;;9.60;2.40;;;18.80;84.20;;;;;;5086223;28;20081;-79
2023/07/27 04:02:00;;;;;;;5.53;2.45;;;18.80;84.20;;;;;;5081376;28;20033;-78
2023/07/27 04:04:26;;;;;;;3.28;2.22;;;18.80;84.20;;;;;;5078162;28;20325;-79
2023/07/27 04:06:51;;;;;;;5.82;2.55;;;18.80;84.30;;;;;;5087703;28;20020;-79
2023/07/27 04:09:17;;;;;;;3.65;2.33;;;18.80;84.30;;;;;;5086954;28;20012;-79
2023/07/27 04:11:43;;;;;;;3.80;2.33;;;18.80;84.30;;;;;;5087790;28;20070;-79
2023/07/27 04:14:08;;;;;;;5.85;2.58;;;18.80;84.30;;;;;;5086308;28;20481;-79
2023/07/27 04:16:34;;;;;;;3.22;1.90;;;18.80;84.30;;;;;;5084808;28;20028;-79
2023/07/27 04:19:00;;;;;;;7.07;2.53;;;18.80;84.30;;;;;;5080042;28;20040;-78
2023/07/27 04:21:25;;;;;;;6.28;2.30;;;18.80;84.30;;;;;;5085135;28;20023;-79
2023/07/27 04:23:51;;;;;;;5.13;2.45;;;18.80;84.30;;;;;;5085832;28;20020;-79
2023/07/27 04:26:16;;;;;;;4.35;2.38;;;18.80;84.40;;;;;;5082665;28;20028;-78
2023/07/27 04:28:42;;;;;;;7.47;2.05;;;18.80;84.30;;;;;;5087194;28;20024;-79
2023/07/27 04:31:07;;;;;;;4.28;2.33;;;18.80;84.40;;;;;;5085916;28;20028;-78
2023/07/27 04:33:33;;;;;;;3.63;2.22;;;18.80;85.10;;;;;;5082232;28;20028;-79
2023/07/27 04:36:02;;;;;;;6.10;2.55;;;18.80;84.40;;;;;;5083881;28;20472;-79
2023/07/27 04:38:29;;;;;;;3.42;2.00;;;18.80;84.40;;;;;;5086661;28;20417;-79
2023/07/27 04:40:54;;;;;;;8.23;2.17;;;18.80;84.40;;;;;;5082097;28;20097;-78
2023/07/27 04:43:20;;;;;;;5.55;2.05;;;18.80;84.40;;;;;;5082637;28;20484;-78
2023/07/27 04:45:46;;;;;;;9.20;2.50;;;18.80;84.30;;;;;;5086542;28;20028;-79
2023/07/27 04:48:11;;;;;;;4.32;2.70;;;18.50;82.20;;;;;;5084196;28;20020;-78
2023/07/27 04:50:37;;;;;;;5.88;2.13;;;18.50;83.10;;;;;;5086398;28;20020;-79
2023/07/27 04:53:03;;;;;;;4.20;2.42;;;18.60;83.20;;;;;;5083447;28;20516;-78
2023/07/27 04:55:29;;;;;;;8.13;2.30;;;18.70;83.20;;;;;;5086243;28;20469;-79
2023/07/27 04:57:57;;;;;;;4.15;1.83;;;18.70;83.10;;;;;;5085917;28;20043;-78
2023/07/27 05:00:23;;;;;;;3.15;2.03;;;18.70;83.20;;;;;;5085659;28;20107;-78
2023/07/27 05:02:49;;;;;;;6.57;2.38;;;18.70;83.30;;;;;;5089909;28;20111;-78
2023/07/27 05:05:14;;;;;;;3.97;2.13;;;18.10;83.00;;;;;;5087886;28;20016;-79
2023/07/27 05:07:40;;;;;;;2.60;1.77;;;18.80;83.40;;;;;;5082000;28;20051;-79
2023/07/27 05:10:06;;;;;;;3.33;2.08;;;18.80;83.50;;;;;;5085956;28;20376;-79
2023/07/27 05:12:32;;;;;;;7.43;2.17;;;18.80;83.60;;;;;;5088729;28;20107;-79
2023/07/27 05:15:00;;;;;;;2.10;1.85;;;18.80;83.80;;;;;;5082875;28;20056;-78
2023/07/27 05:17:26;;;;;;;3.08;1.77;;;18.80;83.80;;;;;;5088295;28;20507;-78
2023/07/27 05:19:53;;;;;;;2.65;1.60;;;18.80;83.80;;;;;;5089103;28;20016;-79
2023/07/27 05:22:19;;;;;;;3.83;1.50;;;18.80;83.90;;;;;;5088997;28;20035;-79
2023/07/27 05:24:45;;;;;;;2.58;1.75;;;18.80;84.00;;;;;;5082587;28;20103;-79
2023/07/27 05:27:10;;;;;;;4.03;1.88;;;18.80;84.00;;;;;;5083835;28;20099;-78
2023/07/27 05:29:36;;;;;;;4.47;2.08;;;18.70;84.80;;;;;;5081138;28;20052;-79
2023/07/27 05:32:02;;;;;;;3.38;1.80;;;18.70;84.00;;;;;;5080237;28;20032;-78
2023/07/27 05:34:28;;;;;;;4.07;1.92;;;18.70;84.10;;;;;;5082238;28;20829;-79
2023/07/27 05:36:54;;;;;;;2.60;1.83;;;18.70;84.10;;;;;;5086998;28;20074;-78
2023/07/27 05:39:19;;;;;;;3.58;1.70;;;18.80;84.20;;;;;;5080316;28;20104;-79
2023/07/27 05:41:45;;;;;;;3.22;2.05;;;18.80;84.20;;;;;;5081174;28;20036;-78
2023/07/27 05:44:10;;;;;;;4.85;2.15;;;18.80;84.20;;;;;;5076942;28;20060;-78
2023/07/27 05:46:36;;;;;;;9.75;2.13;;;18.80;84.30;;;;;;5073280;28;20024;-79
2023/07/27 05:49:03;;;;;;;4.30;2.20;;;18.80;84.30;;;;;;5072912;28;20028;-78
2023/07/27 05:51:29;;;;;;;3.90;2.03;;;18.80;84.40;;;;;;5086801;28;20040;-79
2023/07/27 05:53:55;;;;;;;3.88;2.08;;;18.80;84.30;;;;;;5084375;28;20127;-78
2023/07/27 05:56:20;;;;;;;4.32;2.10;;;18.80;84.30;;;;;;5083954;28;20031;-79
2023/07/27 05:58:46;;;;;;;3.05;1.63;;;18.80;84.40;;;;;;5081387;28;20043;-78
2023/07/27 06:01:12;;;;;;;5.47;1.70;;;18.80;84.40;;;;;;5082304;28;20028;-79
2023/07/27 06:03:37;;;;;;;5.75;1.92;;;18.80;84.50;;;;;;5079502;28;20119;-78
2023/07/27 06:06:03;;;;;;;7.13;1.55;;;18.80;84.40;;;;;;5085090;28;20103;-78
2023/07/27 06:08:29;;;;;;;3.92;1.80;;;18.80;84.50;;;;;;5086209;28;20027;-79
2023/07/27 06:11:07;;;;;;;2.70;1.83;;;18.80;84.50;;;;;;5082459;28;20032;-79
2023/07/27 06:13:33;;;;;;;4.38;1.40;;;18.80;84.40;;;;;;5081044;28;20447;-79
2023/07/27 06:15:59;;;;;;;5.80;1.85;;;18.80;84.50;;;;;;5080703;28;20497;-78
2023/07/27 06:18:25;;;;;;;3.17;1.88;;;18.90;84.40;;;;;;5081676;28;20020;-78
2023/07/27 06:20:52;;;;;;;3.25;2.08;;;18.80;84.50;;;;;;5083669;28;20032;-78
2023/07/27 06:23:18;;;;;;;3.45;1.80;;;18.90;84.50;;;;;;5090080;28;20031;-79
2023/07/27 06:25:44;;;;;;;4.35;2.05;;;18.90;84.50;;;;;;5082685;28;20111;-78
2023/07/27 06:28:11;;;;;;;2.95;2.13;;;18.80;84.50;;;;;;5083403;28;20039;-78
2023/07/27 06:30:38;;;;;;;2.30;1.48;;;18.80;84.50;;;;;;5077795;28;20028;-78
2023/07/27 06:33:05;;;;;;;4.93;1.63;;;18.80;84.50;;;;;;5078288;28;20047;-78
2023/07/27 06:35:31;;;;;;;5.55;1.90;;;18.80;84.60;;;;;;5079620;28;20115;-78
2023/07/27 06:37:56;;;;;;;2.65;1.40;;;18.80;84.50;;;;;;5086712;28;20430;-79
2023/07/27 06:40:22;;;;;;;4.95;1.90;;;18.90;84.70;;;;;;5089871;28;20032;-79
2023/07/27 06:42:48;;;;;;;4.20;2.00;;;18.90;84.70;;;;;;5086377;28;20103;-79
2023/07/27 06:45:14;;;;;;;7.40;2.08;;;18.80;84.60;;;;;;5078069;28;20095;-79
2023/07/27 06:47:39;;;;;;;3.30;1.75;;;18.80;84.70;;;;;;5077525;28;20476;-79
2023/07/27 06:50:06;;;;;;;2.55;1.45;;;18.80;84.70;;;;;;5078035;28;20477;-79
2023/07/27 06:52:32;;;;;;;4.28;2.15;;;18.80;84.70;;;;;;5083486;28;20028;-78
2023/07/27 06:54:58;;;;;;;2.65;1.73;;;18.80;84.70;;;;;;5083858;28;20515;-78
2023/07/27 06:57:26;;;;;;;2.42;1.75;;;18.80;84.70;;;;;;5087640;28;20020;-78
2023/07/27 06:59:52;;;;;;;3.83;2.15;;;18.80;84.70;;;;;;5084970;28;20135;-79
2023/07/27 07:02:18;;;;;;;5.15;1.92;;;18.80;84.70;;;;;;5080060;28;20103;-78
2023/07/27 07:04:45;;;;;;;2.08;1.70;;;18.80;84.80;;;;;;5077333;28;20028;-79
2023/07/27 07:07:11;;;;;;;2.13;1.70;;;18.80;84.80;;;;;;5080156;28;20032;-79
2023/07/27 07:09:38;;;;;;;5.97;1.65;;;18.80;84.90;;;;;;5084445;28;20024;-78
2023/07/27 07:12:05;;;;;;;3.67;2.08;;;18.80;84.80;;;;;;5082525;28;20064;-78
2023/07/27 07:14:31;;;;;;;2.47;1.85;;;18.80;84.80;;;;;;5082831;28;20051;-79
2023/07/27 07:17:00;;;;;;;4.38;1.95;;;18.80;84.80;;;;;;5086271;28;20028;-79
2023/07/27 07:19:26;;;;;;;6.43;1.33;;;18.80;84.90;;;;;;5083856;28;20024;-79
2023/07/27 07:21:52;;;;;;;3.70;2.00;;;18.90;85.00;;;;;;5088510;28;20492;-79
2023/07/27 07:24:18;;;;;;;3.72;1.38;;;18.90;85.00;;;;;;5086443;28;20127;-79
2023/07/27 07:26:45;;;;;;;2.92;1.60;;;18.80;85.00;;;;;;5085377;28;20377;-79
2023/07/27 07:29:11;;;;;;;3.13;1.83;;;18.80;85.00;;;;;;5088469;28;20024;-79
2023/07/27 07:31:37;;;;;;;3.13;1.98;;;18.80;85.00;;;;;;5083692;28;20040;-79
2023/07/27 07:34:03;;;;;;;2.65;2.00;;;18.80;85.00;;;;;;5084075;28;20028;-79
2023/07/27 07:36:28;;;;;;;5.95;1.83;;;18.80;85.00;;;;;;5079993;28;20139;-79
2023/07/27 07:38:54;;;;;;;4.82;1.90;;;18.90;85.10;;;;;;5083471;28;20090;-79
2023/07/27 07:41:20;;;;;;;2.72;1.85;;;18.90;85.10;;;;;;5082108;28;20074;-79
2023/07/27 07:43:46;;;;;;;2.90;1.80;;;18.90;85.20;;;;;;5079861;28;20393;-79
2023/07/27 07:46:12;;;;;;;4.97;1.63;;;18.90;85.20;;;;;;5082438;28;20157;-79
2023/07/27 07:48:38;;;;;;;2.33;1.70;;;18.80;85.20;;;;;;5082292;28;20031;-79
2023/07/27 07:51:12;;;;;;;6.97;2.08;;;18.80;85.20;;;;;;5083272;28;20028;-79
2023/07/27 07:53:38;;;;;;;3.08;1.60;;;18.80;85.10;;;;;;5085335;28;20048;-78
2023/07/27 07:56:04;;;;;;;3.10;1.88;;;18.80;85.20;;;;;;5085806;28;20028;-79
2023/07/27 07:58:30;;;;;;;5.35;2.15;;;18.80;85.30;;;;;;5082440;28;20105;-79
2023/07/27 08:00:56;;;;;;;4.40;2.10;;;18.90;85.30;;;;;;5078576;28;20035;-79
2023/07/27 08:03:22;;;;;;;2.42;1.92;;;18.80;85.30;;;;;;5080364;28;20024;-79
2023/07/27 08:05:48;;;;;;;4.47;2.00;;;18.80;85.30;;;;;;5083491;28;20657;-80
2023/07/27 08:08:14;;;;;;;4.18;2.13;;;18.80;85.40;;;;;;5083818;28;20039;-79
2023/07/27 08:10:39;;;;;;;3.58;2.03;;;18.90;85.40;;;;;;5074368;28;20489;-79
2023/07/27 08:13:05;;;;;;;7.80;2.15;;;18.80;85.40;;;;;;5073730;28;20523;-79
2023/07/27 08:15:31;;;;;;;3.33;1.90;;;18.80;85.40;;;;;;5073041;28;20560;-79
2023/07/27 08:18:01;;;;;;;2.42;1.83;;;18.90;85.50;;;;;;5078021;28;20020;-79
2023/07/27 08:20:27;;;;;;;4.88;2.10;;;18.80;85.40;;;;;;5083690;28;20028;-79
2023/07/27 08:22:53;;;;;;;2.78;1.63;;;18.80;85.40;;;;;;5081756;28;20050;-79
2023/07/27 08:25:18;;;;;;;4.72;1.88;;;18.80;85.50;;;;;;5085943;28;20016;-79
2023/07/27 08:27:44;;;;;;;3.25;1.38;;;18.80;85.60;;;;;;5086093;28;20020;-79
2023/07/27 08:30:10;;;;;;;7.00;1.90;;;18.90;85.60;;;;;;5082098;28;20067;-79
2023/07/27 08:32:36;;;;;;;4.53;1.88;;;18.90;85.60;;;;;;5087395;28;20043;-80
2023/07/27 08:35:02;;;;;;;5.10;2.15;;;18.90;85.60;;;;;;5079718;28;20430;-79
2023/07/27 08:37:28;;;;;;;3.08;2.00;;;18.80;85.60;;;;;;5080491;28;20094;-80
2023/07/27 08:39:53;;;;;;;2.83;1.90;;;18.80;85.60;;;;;;5083851;28;20123;-80
2023/07/27 08:42:19;;;;;;;5.93;1.85;;;18.90;85.70;;;;;;5081481;28;20051;-79
2023/07/27 08:44:46;;;;;;;3.17;1.90;;;18.90;85.70;;;;;;5075288;28;20026;-78
2023/07/27 08:47:12;;;;;;;2.17;1.65;;;18.90;85.70;;;;;;5082442;28;20089;-78
2023/07/27 08:49:39;;;;;;;2.88;1.67;;;18.90;85.70;;;;;;5078411;28;20038;-78
2023/07/27 08:52:05;;;;;;;2.60;1.63;;;18.90;85.70;;;;;;5078183;28;20056;-79
2023/07/27 08:54:31;;;;;;;3.30;1.48;;;18.90;85.70;;;;;;5086836;28;20032;-78
2023/07/27 08:56:56;;;;;;;4.50;2.20;;;18.90;85.80;;;;;;5081153;28;20031;-79
2023/07/27 08:59:25;;;;;;;2.72;1.50;;;18.90;85.80;;;;;;5077727;28;20527;-78
2023/07/27 09:01:51;;;;;;;2.35;1.63;;;18.90;85.70;;;;;;5075840;28;20024;-78
2023/07/27 09:04:17;;;;;;;4.75;1.75;;;18.90;85.80;;;;;;5084334;28;20016;-79
2023/07/27 09:06:44;;;;;;;2.85;1.17;;;18.90;85.80;;;;;;5081660;28;20027;-78
2023/07/27 09:09:25;;;;;;;2.67;1.75;;;18.90;85.80;;;;;;5083858;28;20378;-78
2023/07/27 09:11:51;;;;;;;3.55;1.90;;;18.90;85.90;;;;;;5083460;28;20035;-78
2023/07/27 09:14:19;;;;;;;1.98;1.65;;;18.90;85.90;;;;;;5082595;28;20016;-78
2023/07/27 09:16:49;;;;;;;3.72;1.60;;;18.90;85.80;;;;;;5080828;28;20095;-79
2023/07/27 09:19:20;;;;;;;2.40;1.60;;;18.90;85.90;;;;;;5083995;28;20028;-79
2023/07/27 09:21:51;;;;;;;4.60;1.65;;;18.90;85.90;;;;;;5081176;28;20468;-79
2023/07/27 09:24:18;;;;;;;4.45;2.03;;;18.90;85.90;;;;;;5083800;28;20043;-79
2023/07/27 09:26:49;;;;;;;3.72;1.67;;;18.90;86.00;;;;;;5085370;28;20085;-80
2023/07/27 09:29:21;;;;;;;2.50;1.58;;;18.90;85.90;;;;;;5084452;28;20103;-79
2023/07/27 09:31:57;;;;;;;2.92;1.88;;;18.90;85.90;;;;;;5081596;28;20067;-79
2023/07/27 09:34:23;;;;;;;4.70;1.60;;;18.90;86.00;;;;;;5085033;28;20047;-78
2023/07/27 09:36:49;;;;;;;3.60;1.70;;;19.00;86.10;;;;;;5082351;28;20012;-79
2023/07/27 09:39:15;;;;;;;3.28;1.20;;;18.90;86.10;;;;;;5086412;28;20650;-79
2023/07/27 09:41:45;;;;;;;3.50;1.80;;;18.90;86.10;;;;;;5088791;28;20020;-79
2023/07/27 09:44:14;;;;;;;;;;;18.90;86.10;;;;;;5088876;28;20102;-78
2023/07/27 09:46:41;;;;;;;4.32;1.63;;;18.90;86.20;;;;;;5087708;28;19907;-79
2023/07/27 09:49:07;;;;;;;1.95;1.60;;;18.90;86.20;;;;;;5084242;28;20021;-79
2023/07/27 09:51:34;;;;;;;5.15;1.50;;;18.90;86.00;;;;;;5086747;28;20036;-79
2023/07/27 09:53:59;;;;;;;3.53;1.48;;;18.90;86.10;;;;;;5083861;28;20119;-79
2023/07/27 09:56:27;;;;;;;2.33;1.60;;;18.90;86.10;;;;;;5089020;28;20297;-79
2023/07/27 09:58:53;;;;;;;3.95;1.38;;;18.90;86.20;;;;;;5085526;28;20028;-78
2023/07/27 10:01:19;;;;;;;6.35;1.77;;;18.90;86.10;;;;;;5087363;28;20077;-78
2023/07/27 10:03:46;;;;;;;1.70;1.30;;;18.90;86.10;;;;;;5083470;28;20028;-79
2023/07/27 10:06:15;;;;;;;3.75;1.75;;;18.90;86.10;;;;;;5091767;28;20024;-79
2023/07/27 10:08:42;;;;;;;2.35;1.58;;;18.90;86.10;;;;;;5085944;28;20434;-79
2023/07/27 10:11:08;;;;;;;2.65;1.58;;;18.90;86.10;;;;;;5088520;28;20047;-79
2023/07/27 10:13:39;;;;;;;5.97;2.00;;;18.90;86.10;;;;;;5089183;28;20777;-78
2023/07/27 10:16:09;;;;;;;2.78;1.65;;;19.00;86.20;;;;;;5086875;28;20024;-78
2023/07/27 10:18:39;;;;;;;5.68;1.17;;;19.00;86.30;;;;;;5086935;28;20028;-79
2023/07/27 10:21:26;;;;;;;2.40;1.70;;;19.00;86.20;;;;;;5086091;28;20055;-78
2023/07/27 10:23:53;;;;;;;3.05;1.85;;;19.00;86.20;;;;;;5088666;28;20024;-79
2023/07/27 10:26:19;;;;;;;1.63;1.33;;;19.00;86.30;;;;;;5084892;28;20039;-79
2023/07/27 10:28:48;;;;;;;2.53;1.52;;;18.90;86.30;;;;;;5085881;28;20020;-78
2023/07/27 10:31:25;;;;;;;2.88;1.75;;;19.00;86.30;;;;;;5088625;28;20020;-78
2023/07/27 10:34:12;;;;;;;6.20;2.08;;;19.00;86.30;;;;;;5084632;28;20012;-77
2023/07/27 10:36:52;;;;;;;4.03;1.50;;;19.00;86.40;;;;;;5077871;28;20039;-78
2023/07/27 10:39:29;;;;;;;4.75;1.77;;;19.00;86.40;;;;;;5087251;28;20029;-78
2023/07/27 10:42:03;;;;;;;4.28;2.25;;;19.00;86.40;;;;;;5099720;28;20024;-78
2023/07/27 10:44:42;;;;;;;3.88;2.17;;;19.00;86.40;;;;;;5086465;28;20036;-78
2023/07/27 10:47:32;;;;;;;3.13;1.80;;;19.00;86.50;;;;;;5085744;28;20035;-79
2023/07/27 10:49:59;;;;;;;3.22;1.85;;;19.00;86.40;;;;;;5086615;28;20436;-78
2023/07/27 10:52:27;;;;;;;2.10;1.33;;;19.00;87.30;;;;;;5082526;28;20163;-78
2023/07/27 10:54:58;;;;;;;4.00;1.90;;;19.00;86.50;;;;;;5087516;28;20031;-78
2023/07/27 10:57:28;;;;;;;3.45;1.88;;;19.00;86.60;;;;;;5086022;28;20107;-78
2023/07/27 10:59:54;;;;;;;3.33;1.90;;;19.00;86.50;;;;;;5089330;28;20473;-79
2023/07/27 11:02:23;;;;;;;4.63;1.80;;;19.00;86.50;;;;;;5083499;28;20032;-78
2023/07/27 11:04:53;;;;;;;2.15;1.50;;;19.00;86.50;;;;;;5083906;28;20016;-77
2023/07/27 11:07:26;;;;;;;3.95;1.90;;;19.00;86.60;;;;;;5088991;28;20027;-77
2023/07/27 11:09:52;;;;;;;2.50;1.65;;;19.00;86.60;;;;;;5089658;28;20055;-78
2023/07/27 11:12:17;;;;;;;4.22;1.40;;;19.00;86.70;;;;;;5084995;28;20075;-78
2023/07/27 11:14:43;;;;;;;1.58;1.38;;;19.00;86.70;;;;;;5084471;28;20384;-78
2023/07/27 11:17:10;;;;;;;4.25;1.52;;;19.00;86.60;;;;;;5090001;28;20012;-78
2023/07/27 11:19:37;;;;;;;3.20;2.00;;;19.00;86.60;;;;;;5085533;28;20028;-79
2023/07/27 11:22:03;;;;;;;2.75;2.05;;;19.00;86.70;;;;;;5086961;28;20028;-79
2023/07/27 11:24:31;;;;;;;2.30;1.83;;;19.00;86.70;;;;;;5087293;28;20503;-78
2023/07/27 11:26:56;;;;;;;4.85;2.13;;;19.00;86.80;;;;;;5079152;28;20064;-79
2023/07/27 11:29:22;;;;;;;3.85;1.75;;;19.00;86.80;;;;;;5083759;28;20609;-78
2023/07/27 11:31:56;;;;;;;2.75;1.98;;;19.00;86.90;;;;;;5081399;28;20043;-78
2023/07/27 11:34:23;;;;;;;2.55;1.70;;;19.00;86.90;;;;;;5082394;28;20035;-78
2023/07/27 11:36:54;;;;;;;4.35;2.10;;;19.00;86.90;;;;;;5076521;28;20023;-79
2023/07/27 11:39:21;;;;;;;5.15;1.92;;;19.00;86.90;;;;;;5081992;28;20024;-79
2023/07/27 11:41:49;;;;;;;2.67;1.40;;;19.00;86.90;;;;;;5090510;28;20048;-78
2023/07/27 11:44:16;;;;;;;2.95;1.77;;;19.00;86.90;;;;;;5085317;28;20081;-78
2023/07/27 11:46:46;;;;;;;2.60;1.48;;;19.00;87.50;;;;;;5087835;28;20020;-78
2023/07/27 11:49:16;;;;;;;4.93;1.70;;;19.00;87.00;;;;;;5081454;28;20115;-79
2023/07/27 11:51:45;;;;;;;3.97;1.73;;;19.00;87.00;;;;;;5079908;28;20020;-79
2023/07/27 11:54:24;;;;;;;13.32;1.48;;;19.00;87.00;;;;;;5087715;28;20031;-78
2023/07/27 11:57:00;;;;;;;2.05;1.40;;;19.00;87.00;;;;;;5094253;28;20060;-78
2023/07/27 11:59:26;;;;;;;4.32;1.70;;;19.00;87.00;;;;;;5081706;28;20036;-78
2023/07/27 12:01:52;;;;;;;3.75;1.63;;;19.00;87.10;;;;;;5082565;28;20016;-79
2023/07/27 12:04:19;;;;;;;2.38;1.23;;;19.00;87.10;;;;;;5082208;28;20028;-78
2023/07/27 12:06:45;;;;;;;3.13;1.52;;;19.00;87.00;;;;;;5080477;28;20016;-78
2023/07/27 12:09:11;;;;;;;1.90;1.70;;;19.00;87.10;;;;;;5073025;28;20032;-77
2023/07/27 12:11:37;;;;;;;7.47;1.67;;;19.00;87.10;;;;;;5084273;28;20027;-77
2023/07/27 12:14:07;;;;;;;2.53;1.30;;;19.00;87.00;;;;;;5085119;28;20039;-78
2023/07/27 12:16:37;;;;;;;;;;;19.00;87.10;;;;;;5080655;28;20029;-79
2023/07/27 12:19:03;;;;;;;2.50;1.45;;;19.00;87.10;;;;;;5079479;28;19912;-78
2023/07/27 12:21:29;;;;;;;4.10;1.88;;;19.00;87.10;;;;;;5079172;28;20028;-78
2023/07/27 12:23:55;;;;;;;3.30;1.88;;;19.00;87.10;;;;;;5086442;28;20073;-78
2023/07/27 12:26:20;;;;;;;6.50;1.75;;;19.00;87.10;;;;;;5085999;28;20032;-78
2023/07/27 12:28:46;;;;;;;3.20;1.95;;;19.00;87.10;;;;;;5089011;28;20024;-79
2023/07/27 12:31:11;;;;;;;2.75;1.88;;;19.00;87.10;;;;;;5079081;28;20038;-79
2023/07/27 12:33:37;;;;;;;4.13;1.70;;;19.00;87.20;;;;;;5080580;28;20086;-79
2023/07/27 12:36:03;;;;;;;3.22;1.90;;;19.00;87.10;;;;;;5078790;28;20469;-78
2023/07/27 12:38:29;;;;;;;3.67;1.60;;;19.00;87.30;;;;;;5077637;28;20445;-79
2023/07/27 12:40:54;;;;;;;3.10;1.58;;;19.00;87.20;;;;;;5082796;28;20058;-79
2023/07/27 12:43:22;;;;;;;3.53;1.95;;;19.10;87.30;;;;;;5080673;28;20073;-78
2023/07/27 12:45:48;;;;;;;3.22;2.00;;;19.00;87.30;;;;;;5078738;28;20064;-79
2023/07/27 12:48:13;;;;;;;7.65;1.67;;;19.10;87.40;;;;;;5086800;28;20385;-79
2023/07/27 12:50:41;;;;;;;3.30;2.20;;;19.00;87.30;;;;;;5081035;28;20099;-77